createdAt,value
2022-08-06T00:00:03.025Z,23.10
2022-08-06T00:02:25.807Z,23.10
2022-08-06T00:04:58.587Z,23.00
2022-08-06T00:07:28.708Z,23.00
2022-08-06T00:10:01.523Z,23.00
2022-08-06T00:12:33.237Z,23.00
2022-08-06T00:15:02.045Z,22.90
2022-08-06T00:17:44.721Z,22.90
2022-08-06T00:20:25.141Z,22.90
2022-08-06T00:22:54.449Z,22.80
2022-08-06T00:25:22.010Z,22.80
2022-08-06T00:27:52.112Z,22.80
2022-08-06T00:30:21.723Z,22.80
2022-08-06T00:32:51.387Z,22.70
2022-08-06T00:35:23.554Z,22.70
2022-08-06T00:37:59.034Z,22.70
2022-08-06T00:40:31.507Z,22.70
2022-08-06T00:43:02.478Z,22.60
2022-08-06T00:45:38.160Z,22.60
2022-08-06T00:48:21.737Z,22.60
2022-08-06T00:50:58.718Z,22.50
2022-08-06T00:53:34.027Z,22.50
2022-08-06T00:56:08.186Z,22.50
2022-08-06T00:58:40.161Z,22.40
2022-08-06T01:01:16.744Z,22.40
2022-08-06T01:03:51.106Z,22.40
2022-08-06T01:06:57.116Z,22.40
2022-08-06T01:09:11.137Z,22.30
2022-08-06T01:11:39.225Z,22.30
2022-08-06T01:14:10.270Z,22.30
2022-08-06T01:16:58.503Z,22.20
2022-08-06T01:21:21.143Z,22.20
2022-08-06T01:22:43.128Z,22.20
2022-08-06T01:25:16.360Z,22.10
2022-08-06T01:28:06.950Z,22.10
2022-08-06T01:30:43.448Z,22.10
2022-08-06T01:33:30.513Z,22.00
2022-08-06T01:36:03.408Z,22.00
2022-08-06T01:38:30.725Z,22.00
2022-08-06T01:41:02.840Z,21.90
2022-08-06T01:44:05.654Z,21.90
2022-08-06T01:46:19.547Z,21.90
2022-08-06T01:48:47.180Z,21.90
2022-08-06T01:52:11.086Z,21.90
2022-08-06T01:54:07.529Z,21.90
2022-08-06T01:56:56.719Z,21.90
2022-08-06T01:59:32.207Z,21.80
2022-08-06T02:02:05.355Z,21.80
2022-08-06T02:04:39.166Z,21.80
2022-08-06T02:07:14.420Z,21.80
2022-08-06T02:10:01.394Z,21.80
2022-08-06T02:12:31.453Z,21.80
2022-08-06T02:15:22.044Z,21.70
2022-08-06T02:18:03.406Z,21.70
2022-08-06T02:20:38.320Z,21.70
2022-08-06T02:23:14.689Z,21.60
2022-08-06T02:25:45.968Z,21.60
2022-08-06T02:28:25.438Z,21.60
2022-08-06T02:30:56.287Z,21.60
2022-08-06T02:33:32.539Z,21.50
2022-08-06T02:36:20.656Z,21.50
2022-08-06T02:39:14.903Z,21.50
2022-08-06T02:41:55.897Z,21.40
2022-08-06T02:44:50.025Z,21.40
2022-08-06T02:47:36.497Z,21.40
2022-08-06T02:50:36.495Z,21.40
2022-08-06T02:53:23.793Z,21.40
2022-08-06T02:56:00.769Z,21.40
2022-08-06T02:58:38.405Z,21.30
2022-08-06T03:01:24.442Z,21.30
2022-08-06T03:03:59.476Z,21.30
2022-08-06T03:06:31.641Z,21.40
2022-08-06T03:09:01.018Z,21.40
2022-08-06T03:11:34.337Z,21.40
2022-08-06T03:14:32.048Z,21.40
2022-08-06T03:16:53.318Z,21.40
2022-08-06T03:19:57.692Z,21.30
2022-08-06T03:22:18.540Z,21.30
2022-08-06T03:25:03.526Z,21.20
2022-08-06T03:27:43.649Z,21.20
2022-08-06T03:30:31.496Z,21.20
2022-08-06T03:33:29.241Z,21.20
2022-08-06T03:36:09.687Z,21.10
2022-08-06T03:38:44.172Z,21.10
2022-08-06T03:41:17.969Z,21.10
2022-08-06T03:44:03.354Z,21.10
2022-08-06T03:46:52.178Z,21.10
2022-08-06T03:49:40.707Z,21.10
2022-08-06T03:52:14.844Z,21.10
2022-08-06T03:54:47.617Z,21.10
2022-08-06T03:57:22.015Z,21.20
2022-08-06T04:00:02.238Z,21.20
2022-08-06T04:02:46.370Z,21.10
2022-08-06T04:05:26.947Z,21.10
2022-08-06T04:07:58.484Z,21.10
2022-08-06T04:10:33.694Z,21.10
2022-08-06T04:14:03.411Z,21.10
2022-08-06T04:16:02.464Z,21.10
2022-08-06T04:18:41.819Z,21.20
2022-08-06T04:21:21.099Z,21.20
2022-08-06T04:24:01.244Z,21.20
2022-08-06T04:26:29.733Z,21.20
2022-08-06T04:29:00.645Z,21.20
2022-08-06T04:32:13.714Z,21.30
2022-08-06T04:34:27.063Z,21.30
2022-08-06T04:36:58.699Z,21.30
2022-08-06T04:39:37.932Z,21.30
2022-08-06T04:42:16.078Z,21.40
2022-08-06T04:44:44.679Z,21.30
2022-08-06T04:47:15.162Z,21.30
2022-08-06T04:49:58.197Z,21.30
2022-08-06T04:52:35.524Z,21.30
2022-08-06T04:55:25.332Z,21.20
2022-08-06T04:58:08.270Z,21.20
2022-08-06T05:01:03.600Z,21.20
2022-08-06T05:04:03.151Z,21.20
2022-08-06T05:06:58.402Z,21.30
2022-08-06T05:09:42.160Z,21.30
2022-08-06T05:12:24.756Z,21.40
2022-08-06T05:15:22.607Z,21.50
2022-08-06T05:17:57.510Z,21.60
2022-08-06T05:20:31.603Z,21.60
2022-08-06T05:23:08.813Z,21.70
2022-08-06T05:25:53.967Z,21.80
2022-08-06T05:28:27.358Z,21.80
2022-08-06T05:30:56.985Z,21.80
2022-08-06T05:33:41.880Z,21.80
2022-08-06T05:36:12.017Z,21.80
2022-08-06T05:38:59.041Z,21.90
2022-08-06T05:41:29.745Z,21.90
2022-08-06T05:44:02.486Z,21.80
2022-08-06T05:46:46.539Z,21.80
2022-08-06T05:49:58.489Z,21.80
2022-08-06T05:52:27.844Z,21.80
2022-08-06T05:55:39.825Z,21.70
2022-08-06T05:58:16.441Z,21.70
2022-08-06T06:00:47.766Z,21.60
2022-08-06T06:03:33.081Z,21.60
2022-08-06T06:06:16.146Z,21.50
2022-08-06T06:08:57.440Z,21.50
2022-08-06T06:11:54.558Z,21.40
2022-08-06T06:14:36.001Z,21.30
2022-08-06T06:17:28.150Z,21.30
2022-08-06T06:20:37.234Z,21.10
2022-08-06T06:23:45.870Z,20.90
2022-08-06T06:26:33.469Z,20.70
2022-08-06T06:29:15.218Z,20.50
2022-08-06T06:32:24.787Z,20.30
2022-08-06T06:35:32.792Z,20.20
2022-08-06T06:38:13.899Z,20.10
2022-08-06T06:41:00.078Z,20.00
2022-08-06T06:44:02.145Z,20.00
2022-08-06T06:46:49.737Z,20.00
2022-08-06T06:49:59.870Z,19.90
2022-08-06T06:52:38.809Z,19.80
2022-08-06T06:55:17.083Z,19.70
2022-08-06T06:57:54.243Z,19.60
2022-08-06T07:00:43.313Z,19.50
2022-08-06T07:03:11.166Z,19.30
2022-08-06T07:06:04.080Z,19.20
2022-08-06T07:08:42.229Z,19.10
2022-08-06T07:11:11.453Z,19.00
2022-08-06T07:13:48.150Z,19.00
2022-08-06T07:16:35.224Z,18.90
2022-08-06T07:19:10.234Z,18.90
2022-08-06T07:21:42.262Z,18.80
2022-08-06T07:24:33.166Z,18.80
2022-08-06T07:27:04.723Z,18.70
2022-08-06T07:29:59.476Z,18.70
2022-08-06T07:32:32.226Z,18.70
2022-08-06T07:35:13.422Z,18.60
2022-08-06T07:37:50.080Z,18.60
2022-08-06T07:40:28.746Z,18.50
2022-08-06T07:43:51.592Z,18.50
2022-08-06T07:46:26.100Z,18.40
2022-08-06T07:49:14.312Z,18.40
2022-08-06T07:51:45.442Z,18.40
2022-08-06T07:54:12.989Z,18.30
2022-08-06T07:56:59.786Z,18.30
2022-08-06T07:59:30.500Z,18.30
2022-08-06T08:02:03.555Z,18.30
2022-08-06T08:04:52.667Z,18.30
2022-08-06T08:07:53.051Z,18.20
2022-08-06T08:10:12.129Z,18.20
2022-08-06T08:12:45.262Z,18.20
2022-08-06T08:15:22.978Z,18.10
2022-08-06T08:17:57.712Z,18.10
2022-08-06T08:20:34.345Z,18.00
2022-08-06T08:23:05.682Z,18.00
2022-08-06T08:25:39.727Z,17.90
2022-08-06T08:28:12.531Z,17.90
2022-08-06T08:30:44.083Z,17.80
2022-08-06T08:33:15.195Z,17.80
2022-08-06T08:35:50.166Z,17.80
2022-08-06T08:38:32.896Z,17.70
2022-08-06T08:41:16.080Z,17.60
2022-08-06T08:43:59.937Z,17.50
2022-08-06T08:46:43.921Z,17.40
2022-08-06T08:49:28.197Z,17.40
2022-08-06T08:51:57.109Z,17.30
2022-08-06T08:54:28.081Z,17.30
2022-08-06T08:57:07.676Z,17.20
2022-08-06T09:00:00.071Z,17.20
2022-08-06T09:02:31.140Z,17.20
2022-08-06T09:05:00.046Z,17.20
2022-08-06T09:07:35.798Z,17.20
2022-08-06T09:10:07.443Z,17.20
2022-08-06T09:12:45.746Z,17.10
2022-08-06T09:15:19.397Z,17.10
2022-08-06T09:18:25.723Z,17.00
2022-08-06T09:20:37.383Z,17.00
2022-08-06T09:23:08.916Z,17.00
2022-08-06T09:25:51.511Z,17.00
2022-08-06T09:28:30.246Z,17.00
2022-08-06T09:31:10.335Z,17.00
2022-08-06T09:34:30.767Z,17.00
2022-08-06T09:36:47.282Z,17.00
2022-08-06T09:39:16.012Z,17.00
2022-08-06T09:41:53.933Z,17.00
2022-08-06T09:44:35.229Z,17.00
2022-08-06T09:47:05.106Z,17.00
2022-08-06T09:49:58.357Z,16.90
2022-08-06T09:52:28.969Z,16.90
2022-08-06T09:54:56.153Z,16.90
2022-08-06T09:57:33.091Z,16.90
2022-08-06T10:00:04.865Z,16.90
2022-08-06T10:02:50.801Z,16.90
2022-08-06T10:05:21.005Z,16.90
2022-08-06T10:08:07.247Z,16.90
2022-08-06T10:10:54.083Z,16.90
2022-08-06T10:13:27.540Z,16.90
2022-08-06T10:16:28.705Z,16.90
2022-08-06T10:19:00.139Z,16.90
2022-08-06T10:21:40.146Z,16.80
2022-08-06T10:24:11.541Z,16.80
2022-08-06T10:26:43.622Z,16.80
2022-08-06T10:29:14.140Z,16.80
2022-08-06T10:31:42.640Z,16.80
2022-08-06T10:34:20.086Z,16.80
2022-08-06T10:36:59.440Z,16.80
2022-08-06T10:40:07.849Z,16.80
2022-08-06T10:42:27.129Z,16.80
2022-08-06T10:44:56.775Z,16.80
2022-08-06T10:48:26.239Z,16.80
2022-08-06T10:50:31.916Z,16.80
2022-08-06T10:53:04.145Z,16.80
2022-08-06T10:55:37.670Z,16.80
2022-08-06T10:58:13.237Z,16.80
2022-08-06T11:00:44.990Z,16.80
2022-08-06T11:03:28.969Z,16.80
2022-08-06T11:06:37.966Z,16.80
2022-08-06T11:10:01.614Z,16.80
2022-08-06T11:12:32.427Z,16.70
2022-08-06T11:15:01.593Z,16.70
2022-08-06T11:17:44.217Z,16.60
2022-08-06T11:20:37.862Z,16.60
2022-08-06T11:23:51.947Z,16.50
2022-08-06T11:26:10.087Z,16.40
2022-08-06T11:28:38.377Z,16.30
2022-08-06T11:31:12.157Z,16.40
2022-08-06T11:33:48.816Z,16.40
2022-08-06T11:36:27.854Z,16.40
2022-08-06T11:38:59.146Z,16.40
2022-08-06T11:41:51.142Z,16.40
2022-08-06T11:44:29.305Z,16.40
2022-08-06T11:47:30.940Z,16.50
2022-08-06T11:50:27.150Z,16.50
2022-08-06T11:52:55.188Z,16.50
2022-08-06T11:55:25.198Z,16.50
2022-08-06T11:58:17.018Z,16.60
2022-08-06T12:00:58.427Z,16.70
2022-08-06T12:03:54.987Z,16.70
2022-08-06T12:06:25.873Z,16.80
2022-08-06T12:09:09.674Z,16.80
2022-08-06T12:11:38.642Z,16.80
2022-08-06T12:14:33.015Z,16.80
2022-08-06T12:17:10.954Z,16.80
2022-08-06T12:19:43.039Z,16.80
2022-08-06T12:22:31.198Z,16.80
2022-08-06T12:25:11.207Z,16.80
2022-08-06T12:27:49.761Z,16.80
2022-08-06T12:30:36.591Z,16.80
2022-08-06T12:33:11.851Z,16.80
2022-08-06T12:36:09.165Z,16.80
2022-08-06T12:38:39.895Z,16.80
2022-08-06T12:41:12.649Z,16.80
2022-08-06T12:43:57.677Z,16.90
2022-08-06T12:46:29.423Z,16.90
2022-08-06T12:49:01.671Z,17.00
2022-08-06T12:51:32.160Z,17.00
2022-08-06T12:54:02.446Z,17.10
2022-08-06T12:56:36.338Z,17.10
2022-08-06T12:59:22.285Z,17.20
2022-08-06T13:02:11.383Z,17.20
2022-08-06T13:04:45.971Z,17.30
2022-08-06T13:07:20.399Z,17.40
2022-08-06T13:10:33.834Z,17.50
2022-08-06T13:14:02.565Z,17.50
2022-08-06T13:15:24.998Z,17.60
2022-08-06T13:18:41.028Z,17.70
2022-08-06T13:21:02.917Z,17.80
2022-08-06T13:23:37.661Z,17.90
2022-08-06T13:26:25.680Z,18.10
2022-08-06T13:30:34.713Z,18.30
2022-08-06T13:32:27.407Z,18.70
2022-08-06T13:35:17.122Z,18.90
2022-08-06T13:37:56.231Z,19.10
2022-08-06T13:41:03.320Z,19.20
2022-08-06T13:43:53.369Z,19.50
2022-08-06T13:46:29.734Z,19.90
2022-08-06T13:49:02.046Z,20.20
2022-08-06T13:51:34.363Z,20.30
2022-08-06T13:54:13.978Z,20.40
2022-08-06T13:56:42.005Z,20.50
2022-08-06T13:59:11.977Z,20.60
2022-08-06T14:01:46.230Z,20.60
2022-08-06T14:04:18.464Z,20.50
2022-08-06T14:06:48.251Z,20.60
2022-08-06T14:09:20.422Z,20.60
2022-08-06T14:11:54.003Z,20.70
2022-08-06T14:14:24.960Z,21.00
2022-08-06T14:16:54.023Z,21.30
2022-08-06T14:20:17.824Z,21.40
2022-08-06T14:22:09.946Z,21.50
2022-08-06T14:24:39.277Z,21.50
2022-08-06T14:27:15.149Z,21.40
2022-08-06T14:30:22.345Z,21.30
2022-08-06T14:32:45.842Z,21.30
2022-08-06T14:35:17.095Z,21.30
2022-08-06T14:37:52.238Z,21.60
2022-08-06T14:41:01.637Z,22.00
2022-08-06T14:43:56.131Z,22.50
2022-08-06T14:46:30.587Z,22.90
2022-08-06T14:49:00.669Z,22.90
2022-08-06T14:51:37.939Z,22.60
2022-08-06T14:54:31.470Z,22.40
2022-08-06T14:57:14.925Z,22.10
2022-08-06T14:59:48.550Z,21.90
2022-08-06T15:02:23.992Z,21.60
2022-08-06T15:04:53.728Z,21.60
2022-08-06T15:07:35.663Z,21.90
2022-08-06T15:10:26.212Z,22.20
2022-08-06T15:13:01.255Z,22.60
2022-08-06T15:15:36.435Z,23.20
2022-08-06T15:18:40.507Z,23.80
2022-08-06T15:20:58.938Z,24.50
2022-08-06T15:23:30.974Z,25.00
2022-08-06T15:26:42.254Z,25.10
2022-08-06T15:29:02.324Z,24.90
2022-08-06T15:31:32.896Z,24.50
2022-08-06T15:34:06.224Z,24.30
2022-08-06T15:36:36.061Z,24.20
2022-08-06T15:39:09.289Z,24.00
2022-08-06T15:41:40.972Z,23.90
2022-08-06T15:44:10.396Z,23.80
2022-08-06T15:46:41.623Z,23.70
2022-08-06T15:49:13.664Z,23.50
2022-08-06T15:52:00.884Z,23.40
2022-08-06T15:54:29.086Z,23.40
2022-08-06T15:56:56.284Z,23.40
2022-08-06T15:59:24.630Z,23.40
2022-08-06T16:02:12.936Z,23.30
2022-08-06T16:04:57.998Z,23.30
2022-08-06T16:07:30.782Z,23.40
2022-08-06T16:10:03.128Z,23.50
2022-08-06T16:12:34.689Z,23.70
2022-08-06T16:15:04.079Z,23.80
2022-08-06T16:18:06.085Z,24.00
2022-08-06T16:20:27.017Z,24.10
2022-08-06T16:22:59.414Z,24.20
2022-08-06T16:26:09.137Z,24.20
2022-08-06T16:28:14.707Z,24.00
2022-08-06T16:31:05.406Z,23.90
2022-08-06T16:33:54.257Z,23.80
2022-08-06T16:36:19.643Z,23.70
2022-08-06T16:39:00.129Z,23.60
2022-08-06T16:41:56.590Z,23.40
2022-08-06T16:44:14.962Z,23.20
2022-08-06T16:46:43.647Z,23.00
2022-08-06T16:49:20.467Z,22.80
2022-08-06T16:52:42.264Z,22.50
2022-08-06T16:54:36.542Z,22.40
2022-08-06T16:57:11.602Z,22.30
2022-08-06T17:02:42.114Z,22.60
2022-08-06T17:05:17.333Z,22.80
2022-08-06T17:07:53.870Z,23.10
2022-08-06T17:10:25.766Z,23.20
2022-08-06T17:12:57.777Z,23.20
2022-08-06T17:15:36.497Z,23.20
2022-08-06T17:18:06.082Z,23.30
2022-08-06T17:20:33.516Z,23.40
2022-08-06T17:23:01.903Z,23.40
2022-08-06T17:28:19.449Z,23.50
2022-08-06T17:30:52.101Z,23.50
2022-08-06T17:33:22.977Z,23.40
2022-08-06T17:36:30.893Z,23.20
2022-08-06T17:38:39.904Z,23.00
2022-08-06T17:41:11.781Z,22.70
2022-08-06T17:43:54.470Z,22.60
2022-08-06T17:46:24.963Z,22.50
2022-08-06T17:48:53.538Z,22.40
2022-08-06T17:51:22.276Z,22.30
2022-08-06T17:53:53.575Z,22.30
2022-08-06T17:56:30.060Z,22.10
2022-08-06T17:59:18.720Z,22.00
2022-08-06T18:01:49.294Z,21.70
2022-08-06T18:04:30.847Z,21.40
2022-08-06T18:07:12.202Z,21.20
2022-08-06T18:10:16.728Z,20.80
2022-08-06T18:12:48.708Z,20.60
2022-08-06T18:15:19.191Z,20.30
2022-08-06T18:18:03.959Z,20.10
2022-08-06T18:20:39.089Z,19.90
2022-08-06T18:23:20.150Z,19.70
2022-08-06T18:25:56.105Z,19.60
2022-08-06T18:28:33.270Z,19.40
2022-08-06T18:31:09.907Z,19.30
2022-08-06T18:33:46.039Z,19.10
2022-08-06T18:36:15.662Z,18.90
2022-08-06T18:38:44.363Z,18.80
2022-08-06T18:41:15.343Z,18.60
2022-08-06T18:43:54.552Z,18.50
2022-08-06T18:46:56.945Z,18.40
2022-08-06T18:49:15.128Z,18.20
2022-08-06T18:51:46.774Z,18.10
2022-08-06T18:54:22.733Z,18.10
2022-08-06T18:56:56.196Z,17.90
2022-08-06T18:59:29.766Z,17.80
2022-08-06T19:01:59.004Z,17.80
2022-08-06T19:04:29.519Z,17.60
2022-08-06T19:07:03.056Z,17.60
2022-08-06T19:09:35.427Z,17.50
2022-08-06T19:12:12.388Z,17.40
2022-08-06T19:14:43.856Z,17.40
2022-08-06T19:17:12.021Z,17.20
2022-08-06T19:19:58.998Z,17.20
2022-08-06T19:22:30.749Z,17.10
2022-08-06T19:25:00.467Z,17.10
2022-08-06T19:28:07.471Z,17.00
2022-08-06T19:30:41.002Z,16.90
2022-08-06T19:33:16.167Z,16.90
2022-08-06T19:36:06.866Z,16.80
2022-08-06T19:38:33.793Z,16.70
2022-08-06T19:41:02.659Z,16.70
2022-08-06T19:44:27.530Z,16.60
2022-08-06T19:46:31.840Z,16.60
2022-08-06T19:49:04.203Z,16.50
2022-08-06T19:52:03.864Z,16.50
2022-08-06T19:54:26.189Z,16.40
2022-08-06T19:57:08.658Z,16.40
2022-08-06T20:00:52.525Z,16.30
2022-08-06T20:02:26.617Z,16.30
2022-08-06T20:04:57.901Z,16.20
2022-08-06T20:07:27.327Z,16.20
2022-08-06T20:10:01.576Z,16.10
2022-08-06T20:12:38.562Z,16.00
2022-08-06T20:15:11.859Z,16.00
2022-08-06T20:17:49.619Z,15.90
2022-08-06T20:20:28.729Z,15.90
2022-08-06T20:23:08.598Z,15.80
2022-08-06T20:26:08.543Z,15.70
2022-08-06T20:29:09.852Z,15.70
2022-08-06T20:31:21.564Z,15.60
2022-08-06T20:33:58.015Z,15.60
2022-08-06T20:36:29.662Z,15.50
2022-08-06T20:38:58.322Z,15.50
2022-08-06T20:42:02.323Z,15.50
2022-08-06T20:44:18.335Z,15.40
2022-08-06T20:47:46.078Z,15.40
2022-08-06T20:50:01.623Z,15.40
2022-08-06T20:52:24.968Z,15.30
2022-08-06T20:54:57.593Z,15.20
2022-08-06T20:57:26.966Z,15.20
2022-08-06T20:59:57.020Z,15.20
2022-08-06T21:02:25.539Z,15.20
2022-08-06T21:05:12.798Z,15.10
2022-08-06T21:07:57.324Z,15.00
2022-08-06T21:10:30.243Z,15.00
2022-08-06T21:13:01.907Z,14.90
2022-08-06T21:15:53.973Z,14.90
2022-08-06T21:18:21.030Z,14.80
2022-08-06T21:20:51.209Z,14.70
2022-08-06T21:23:21.207Z,14.70
2022-08-06T21:25:58.551Z,14.70
2022-08-06T21:28:26.021Z,14.60
2022-08-06T21:30:53.630Z,14.50
2022-08-06T21:33:23.223Z,14.50
2022-08-06T21:35:51.148Z,14.40
2022-08-06T21:38:24.184Z,14.40
2022-08-06T21:40:56.325Z,14.30
2022-08-06T21:43:29.229Z,14.30
2022-08-06T21:46:27.314Z,14.30
2022-08-06T21:48:56.237Z,14.20
2022-08-06T21:51:25.412Z,14.20
2022-08-06T21:54:03.154Z,14.10
2022-08-06T21:56:38.444Z,14.10
2022-08-06T21:59:12.620Z,14.00
2022-08-06T22:02:09.946Z,14.00
2022-08-06T22:04:39.561Z,13.90
2022-08-06T22:07:15.808Z,13.80
2022-08-06T22:09:45.235Z,13.80
2022-08-06T22:12:39.676Z,13.70
2022-08-06T22:15:02.852Z,13.70
2022-08-06T22:18:00.210Z,13.60
2022-08-06T22:20:22.856Z,13.60
2022-08-06T22:22:52.584Z,13.50
2022-08-06T22:25:22.408Z,13.40
2022-08-06T22:27:54.936Z,13.40
2022-08-06T22:30:33.107Z,13.40
2022-08-06T22:33:10.388Z,13.40
2022-08-06T22:35:57.577Z,13.30
2022-08-06T22:38:31.910Z,13.30
2022-08-06T22:41:00.123Z,13.30
2022-08-06T22:43:46.341Z,13.30
2022-08-06T22:46:16.226Z,13.20
2022-08-06T22:48:47.360Z,13.20
2022-08-06T22:51:19.107Z,13.20
2022-08-06T22:54:25.866Z,13.10
2022-08-06T22:57:04.381Z,13.10
2022-08-06T23:00:06.557Z,13.10
2022-08-06T23:02:18.090Z,13.00
2022-08-06T23:04:46.273Z,13.00
2022-08-06T23:07:25.246Z,12.90
2022-08-06T23:09:58.776Z,12.90
2022-08-06T23:12:31.675Z,12.90
2022-08-06T23:15:30.526Z,12.80
2022-08-06T23:17:56.683Z,12.80
2022-08-06T23:20:32.732Z,12.80
2022-08-06T23:23:04.343Z,12.80
2022-08-06T23:26:02.146Z,12.70
2022-08-06T23:28:23.051Z,12.60
2022-08-06T23:30:50.705Z,12.60
2022-08-06T23:33:18.340Z,12.60
2022-08-06T23:35:45.595Z,12.60
2022-08-06T23:38:34.373Z,12.60
2022-08-06T23:41:00.259Z,12.50
2022-08-06T23:43:30.665Z,12.50
2022-08-06T23:46:03.688Z,12.50
2022-08-06T23:48:32.786Z,12.50
2022-08-06T23:51:05.189Z,12.50
2022-08-06T23:54:08.826Z,12.50
2022-08-06T23:56:26.712Z,12.50
2022-08-06T23:58:57.489Z,12.40
